sensor_id;sensor_type;location;lat;lon;timestamp;P1;durP1;ratioP1;P2;durP2;ratioP2
57947;SDS011;43754;56.992;24.292;2022-10-18T00:01:13;13.98;;;8.15;;
57947;SDS011;43754;56.992;24.292;2022-10-18T00:03:45;20.00;;;8.60;;
57947;SDS011;43754;56.992;24.292;2022-10-18T00:06:17;18.13;;;9.15;;
57947;SDS011;43754;56.992;24.292;2022-10-18T00:08:50;20.67;;;8.00;;
57947;SDS011;43754;56.992;24.292;2022-10-18T00:11:23;17.00;;;9.48;;
57947;SDS011;43754;56.992;24.292;2022-10-18T00:13:55;25.65;;;12.15;;
57947;SDS011;43754;56.992;24.292;2022-10-18T00:16:27;17.38;;;9.13;;
57947;SDS011;43754;56.992;24.292;2022-10-18T00:18:59;18.63;;;11.00;;
57947;SDS011;43754;56.992;24.292;2022-10-18T00:21:31;19.42;;;9.48;;
57947;SDS011;43754;56.992;24.292;2022-10-18T00:24:04;21.50;;;11.50;;
57947;SDS011;43754;56.992;24.292;2022-10-18T00:26:38;18.55;;;9.95;;
57947;SDS011;43754;56.992;24.292;2022-10-18T00:29:11;17.70;;;11.93;;
57947;SDS011;43754;56.992;24.292;2022-10-18T00:31:45;22.48;;;13.52;;
57947;SDS011;43754;56.992;24.292;2022-10-18T00:34:16;20.38;;;14.00;;
57947;SDS011;43754;56.992;24.292;2022-10-18T00:36:48;30.75;;;19.10;;
57947;SDS011;43754;56.992;24.292;2022-10-18T00:39:20;28.63;;;18.73;;
57947;SDS011;43754;56.992;24.292;2022-10-18T00:41:54;32.20;;;19.00;;
57947;SDS011;43754;56.992;24.292;2022-10-18T00:47:31;26.63;;;16.20;;
57947;SDS011;43754;56.992;24.292;2022-10-18T00:50:05;35.45;;;20.67;;
57947;SDS011;43754;56.992;24.292;2022-10-18T00:52:40;29.73;;;20.52;;
57947;SDS011;43754;56.992;24.292;2022-10-18T00:55:14;37.10;;;22.40;;
57947;SDS011;43754;56.992;24.292;2022-10-18T00:57:47;32.55;;;20.95;;
57947;SDS011;43754;56.992;24.292;2022-10-18T01:00:20;31.70;;;21.10;;
57947;SDS011;43754;56.992;24.292;2022-10-18T01:02:52;31.10;;;20.67;;
57947;SDS011;43754;56.992;24.292;2022-10-18T01:05:24;46.63;;;28.10;;
57947;SDS011;43754;56.992;24.292;2022-10-18T01:08:10;42.22;;;24.77;;
57947;SDS011;43754;56.992;24.292;2022-10-18T01:11:21;39.47;;;23.83;;
57947;SDS011;43754;56.992;24.292;2022-10-18T01:14:07;42.60;;;26.08;;
57947;SDS011;43754;56.992;24.292;2022-10-18T01:16:51;40.47;;;25.92;;
57947;SDS011;43754;56.992;24.292;2022-10-18T01:19:37;37.35;;;24.27;;
57947;SDS011;43754;56.992;24.292;2022-10-18T01:22:30;38.00;;;26.23;;
57947;SDS011;43754;56.992;24.292;2022-10-18T01:25:20;42.22;;;27.52;;
57947;SDS011;43754;56.992;24.292;2022-10-18T01:28:03;39.83;;;23.70;;
57947;SDS011;43754;56.992;24.292;2022-10-18T01:30:52;36.40;;;21.63;;
57947;SDS011;43754;56.992;24.292;2022-10-18T01:33:31;36.20;;;22.63;;
57947;SDS011;43754;56.992;24.292;2022-10-18T01:36:10;43.17;;;26.73;;
57947;SDS011;43754;56.992;24.292;2022-10-18T01:38:48;41.90;;;22.77;;
57947;SDS011;43754;56.992;24.292;2022-10-18T01:41:23;35.03;;;22.58;;
57947;SDS011;43754;56.992;24.292;2022-10-18T01:43:58;34.95;;;22.55;;
57947;SDS011;43754;56.992;24.292;2022-10-18T01:46:33;39.35;;;24.50;;
57947;SDS011;43754;56.992;24.292;2022-10-18T01:49:07;37.50;;;23.50;;
57947;SDS011;43754;56.992;24.292;2022-10-18T01:51:39;31.65;;;22.15;;
57947;SDS011;43754;56.992;24.292;2022-10-18T01:54:11;35.53;;;23.05;;
57947;SDS011;43754;56.992;24.292;2022-10-18T01:56:49;42.67;;;26.00;;
57947;SDS011;43754;56.992;24.292;2022-10-18T01:59:29;37.20;;;23.35;;
57947;SDS011;43754;56.992;24.292;2022-10-18T02:02:14;36.85;;;24.77;;
57947;SDS011;43754;56.992;24.292;2022-10-18T02:04:57;37.28;;;24.73;;
57947;SDS011;43754;56.992;24.292;2022-10-18T02:07:38;39.88;;;25.88;;
57947;SDS011;43754;56.992;24.292;2022-10-18T02:10:23;38.20;;;25.48;;
57947;SDS011;43754;56.992;24.292;2022-10-18T02:13:01;40.50;;;26.85;;
57947;SDS011;43754;56.992;24.292;2022-10-18T02:15:34;41.65;;;28.95;;
57947;SDS011;43754;56.992;24.292;2022-10-18T02:18:11;37.65;;;26.13;;
57947;SDS011;43754;56.992;24.292;2022-10-18T02:20:48;47.05;;;28.65;;
57947;SDS011;43754;56.992;24.292;2022-10-18T02:23:22;36.85;;;23.98;;
57947;SDS011;43754;56.992;24.292;2022-10-18T02:25:57;43.58;;;27.25;;
57947;SDS011;43754;56.992;24.292;2022-10-18T02:28:29;37.15;;;24.10;;
57947;SDS011;43754;56.992;24.292;2022-10-18T02:31:03;34.50;;;21.95;;
57947;SDS011;43754;56.992;24.292;2022-10-18T02:33:42;37.08;;;22.05;;
57947;SDS011;43754;56.992;24.292;2022-10-18T02:38:55;39.10;;;23.77;;
57947;SDS011;43754;56.992;24.292;2022-10-18T02:41:31;31.50;;;21.17;;
57947;SDS011;43754;56.992;24.292;2022-10-18T02:44:04;40.42;;;26.00;;
57947;SDS011;43754;56.992;24.292;2022-10-18T02:46:36;30.20;;;21.35;;
57947;SDS011;43754;56.992;24.292;2022-10-18T02:49:10;32.10;;;21.58;;
57947;SDS011;43754;56.992;24.292;2022-10-18T02:51:42;30.60;;;20.83;;
57947;SDS011;43754;56.992;24.292;2022-10-18T02:54:14;30.77;;;19.45;;
57947;SDS011;43754;56.992;24.292;2022-10-18T02:56:46;29.42;;;19.52;;
57947;SDS011;43754;56.992;24.292;2022-10-18T02:59:18;26.80;;;17.73;;
57947;SDS011;43754;56.992;24.292;2022-10-18T03:01:50;26.10;;;18.35;;
57947;SDS011;43754;56.992;24.292;2022-10-18T03:04:23;32.75;;;21.10;;
57947;SDS011;43754;56.992;24.292;2022-10-18T03:06:55;28.30;;;19.25;;
57947;SDS011;43754;56.992;24.292;2022-10-18T03:09:27;28.88;;;19.73;;
57947;SDS011;43754;56.992;24.292;2022-10-18T03:11:59;26.40;;;17.65;;
57947;SDS011;43754;56.992;24.292;2022-10-18T03:14:31;26.80;;;19.05;;
57947;SDS011;43754;56.992;24.292;2022-10-18T03:17:03;24.80;;;17.35;;
57947;SDS011;43754;56.992;24.292;2022-10-18T03:19:37;27.27;;;17.15;;
57947;SDS011;43754;56.992;24.292;2022-10-18T03:22:09;21.05;;;16.02;;
57947;SDS011;43754;56.992;24.292;2022-10-18T03:24:41;21.52;;;15.00;;
57947;SDS011;43754;56.992;24.292;2022-10-18T03:27:13;22.35;;;14.68;;
57947;SDS011;43754;56.992;24.292;2022-10-18T03:29:44;21.35;;;13.35;;
57947;SDS011;43754;56.992;24.292;2022-10-18T03:32:17;12.93;;;10.35;;
57947;SDS011;43754;56.992;24.292;2022-10-18T03:34:51;14.52;;;10.77;;
57947;SDS011;43754;56.992;24.292;2022-10-18T03:37:23;11.73;;;10.00;;
57947;SDS011;43754;56.992;24.292;2022-10-18T03:39:55;13.25;;;10.50;;
57947;SDS011;43754;56.992;24.292;2022-10-18T03:42:27;12.43;;;9.70;;
57947;SDS011;43754;56.992;24.292;2022-10-18T03:44:59;11.32;;;8.70;;
57947;SDS011;43754;56.992;24.292;2022-10-18T03:47:31;9.85;;;7.85;;
57947;SDS011;43754;56.992;24.292;2022-10-18T03:50:05;9.32;;;7.40;;
57947;SDS011;43754;56.992;24.292;2022-10-18T03:52:37;10.02;;;7.03;;
57947;SDS011;43754;56.992;24.292;2022-10-18T03:55:09;8.60;;;7.03;;
57947;SDS011;43754;56.992;24.292;2022-10-18T03:57:40;9.43;;;5.85;;
57947;SDS011;43754;56.992;24.292;2022-10-18T04:00:13;8.10;;;6.10;;
57947;SDS011;43754;56.992;24.292;2022-10-18T04:02:45;6.97;;;4.78;;
57947;SDS011;43754;56.992;24.292;2022-10-18T04:05:18;4.35;;;3.53;;
57947;SDS011;43754;56.992;24.292;2022-10-18T04:07:51;6.55;;;4.03;;
57947;SDS011;43754;56.992;24.292;2022-10-18T04:10:22;4.20;;;3.78;;
57947;SDS011;43754;56.992;24.292;2022-10-18T04:12:54;3.28;;;2.67;;
57947;SDS011;43754;56.992;24.292;2022-10-18T04:15:26;3.30;;;3.00;;
57947;SDS011;43754;56.992;24.292;2022-10-18T04:17:58;4.90;;;3.22;;
57947;SDS011;43754;56.992;24.292;2022-10-18T04:20:32;5.97;;;3.45;;
57947;SDS011;43754;56.992;24.292;2022-10-18T04:23:04;7.32;;;3.58;;
57947;SDS011;43754;56.992;24.292;2022-10-18T04:25:36;5.88;;;3.90;;
57947;SDS011;43754;56.992;24.292;2022-10-18T04:28:08;6.95;;;3.38;;
57947;SDS011;43754;56.992;24.292;2022-10-18T04:30:40;4.18;;;2.83;;
57947;SDS011;43754;56.992;24.292;2022-10-18T04:33:12;6.45;;;3.85;;
57947;SDS011;43754;56.992;24.292;2022-10-18T04:35:45;5.47;;;3.28;;
57947;SDS011;43754;56.992;24.292;2022-10-18T04:38:21;5.90;;;3.85;;
57947;SDS011;43754;56.992;24.292;2022-10-18T04:40:52;11.93;;;5.20;;
57947;SDS011;43754;56.992;24.292;2022-10-18T04:43:24;4.82;;;3.33;;
57947;SDS011;43754;56.992;24.292;2022-10-18T04:45:56;6.82;;;3.35;;
57947;SDS011;43754;56.992;24.292;2022-10-18T04:48:28;5.10;;;3.60;;
57947;SDS011;43754;56.992;24.292;2022-10-18T04:51:02;7.82;;;3.97;;
57947;SDS011;43754;56.992;24.292;2022-10-18T04:53:34;4.63;;;3.25;;
57947;SDS011;43754;56.992;24.292;2022-10-18T04:56:06;6.43;;;3.17;;
57947;SDS011;43754;56.992;24.292;2022-10-18T04:58:39;4.32;;;3.08;;
57947;SDS011;43754;56.992;24.292;2022-10-18T05:01:11;7.20;;;3.58;;
57947;SDS011;43754;56.992;24.292;2022-10-18T05:03:43;4.78;;;3.13;;
57947;SDS011;43754;56.992;24.292;2022-10-18T05:06:16;5.05;;;3.05;;
57947;SDS011;43754;56.992;24.292;2022-10-18T05:08:48;6.32;;;3.15;;
57947;SDS011;43754;56.992;24.292;2022-10-18T05:11:20;4.65;;;3.42;;
57947;SDS011;43754;56.992;24.292;2022-10-18T05:13:52;5.80;;;3.97;;
57947;SDS011;43754;56.992;24.292;2022-10-18T05:16:24;7.25;;;4.07;;
57947;SDS011;43754;56.992;24.292;2022-10-18T05:18:58;6.60;;;4.57;;
57947;SDS011;43754;56.992;24.292;2022-10-18T05:21:32;4.80;;;3.75;;
57947;SDS011;43754;56.992;24.292;2022-10-18T05:24:04;6.72;;;4.68;;
57947;SDS011;43754;56.992;24.292;2022-10-18T05:26:37;9.75;;;5.10;;
57947;SDS011;43754;56.992;24.292;2022-10-18T05:29:09;8.77;;;5.00;;
57947;SDS011;43754;56.992;24.292;2022-10-18T05:31:41;9.50;;;5.57;;
57947;SDS011;43754;56.992;24.292;2022-10-18T05:34:13;6.50;;;4.45;;
57947;SDS011;43754;56.992;24.292;2022-10-18T05:36:46;11.55;;;4.68;;
57947;SDS011;43754;56.992;24.292;2022-10-18T05:39:20;7.57;;;4.57;;
57947;SDS011;43754;56.992;24.292;2022-10-18T05:41:52;9.40;;;3.70;;
57947;SDS011;43754;56.992;24.292;2022-10-18T05:44:24;5.40;;;3.30;;
57947;SDS011;43754;56.992;24.292;2022-10-18T05:46:56;5.63;;;3.40;;
57947;SDS011;43754;56.992;24.292;2022-10-18T05:49:28;7.13;;;3.97;;
57947;SDS011;43754;56.992;24.292;2022-10-18T05:52:01;4.05;;;2.90;;
57947;SDS011;43754;56.992;24.292;2022-10-18T05:54:34;5.40;;;3.42;;
57947;SDS011;43754;56.992;24.292;2022-10-18T05:57:06;5.18;;;3.35;;
57947;SDS011;43754;56.992;24.292;2022-10-18T05:59:38;5.65;;;2.80;;
57947;SDS011;43754;56.992;24.292;2022-10-18T06:02:10;8.20;;;3.42;;
57947;SDS011;43754;56.992;24.292;2022-10-18T06:04:42;7.28;;;3.65;;
57947;SDS011;43754;56.992;24.292;2022-10-18T06:07:16;8.02;;;4.00;;
57947;SDS011;43754;56.992;24.292;2022-10-18T06:09:48;6.88;;;2.97;;
57947;SDS011;43754;56.992;24.292;2022-10-18T06:12:20;10.75;;;4.28;;
57947;SDS011;43754;56.992;24.292;2022-10-18T06:14:52;6.13;;;3.50;;
57947;SDS011;43754;56.992;24.292;2022-10-18T06:17:24;10.00;;;3.58;;
57947;SDS011;43754;56.992;24.292;2022-10-18T06:20:00;3.83;;;2.65;;
57947;SDS011;43754;56.992;24.292;2022-10-18T06:22:33;5.45;;;3.10;;
57947;SDS011;43754;56.992;24.292;2022-10-18T06:25:06;7.03;;;3.13;;
57947;SDS011;43754;56.992;24.292;2022-10-18T06:27:38;7.18;;;2.95;;
57947;SDS011;43754;56.992;24.292;2022-10-18T06:30:10;5.45;;;3.00;;
57947;SDS011;43754;56.992;24.292;2022-10-18T06:32:42;5.53;;;3.08;;
57947;SDS011;43754;56.992;24.292;2022-10-18T06:35:14;6.72;;;3.13;;
57947;SDS011;43754;56.992;24.292;2022-10-18T06:37:48;6.65;;;3.13;;
57947;SDS011;43754;56.992;24.292;2022-10-18T06:40:19;5.55;;;3.60;;
57947;SDS011;43754;56.992;24.292;2022-10-18T06:42:51;7.53;;;3.60;;
57947;SDS011;43754;56.992;24.292;2022-10-18T06:45:40;6.65;;;2.72;;
57947;SDS011;43754;56.992;24.292;2022-10-18T06:48:13;6.75;;;3.35;;
57947;SDS011;43754;56.992;24.292;2022-10-18T06:50:49;9.90;;;3.78;;
57947;SDS011;43754;56.992;24.292;2022-10-18T06:53:24;6.00;;;3.00;;
57947;SDS011;43754;56.992;24.292;2022-10-18T06:56:00;4.43;;;2.85;;
57947;SDS011;43754;56.992;24.292;2022-10-18T06:58:33;5.57;;;3.00;;
57947;SDS011;43754;56.992;24.292;2022-10-18T07:01:06;8.30;;;3.35;;
57947;SDS011;43754;56.992;24.292;2022-10-18T07:03:39;8.27;;;3.08;;
57947;SDS011;43754;56.992;24.292;2022-10-18T07:06:12;5.45;;;2.65;;
57947;SDS011;43754;56.992;24.292;2022-10-18T07:08:46;6.30;;;3.33;;
57947;SDS011;43754;56.992;24.292;2022-10-18T07:11:20;6.60;;;3.22;;
57947;SDS011;43754;56.992;24.292;2022-10-18T07:13:57;4.28;;;3.10;;
57947;SDS011;43754;56.992;24.292;2022-10-18T07:16:35;7.20;;;2.97;;
57947;SDS011;43754;56.992;24.292;2022-10-18T07:19:07;10.88;;;3.50;;
57947;SDS011;43754;56.992;24.292;2022-10-18T07:21:39;5.75;;;3.15;;
57947;SDS011;43754;56.992;24.292;2022-10-18T07:24:12;5.75;;;3.30;;
57947;SDS011;43754;56.992;24.292;2022-10-18T07:26:44;6.68;;;3.83;;
57947;SDS011;43754;56.992;24.292;2022-10-18T07:29:16;8.32;;;3.33;;
57947;SDS011;43754;56.992;24.292;2022-10-18T07:31:48;6.28;;;3.20;;
57947;SDS011;43754;56.992;24.292;2022-10-18T07:34:20;6.95;;;3.22;;
57947;SDS011;43754;56.992;24.292;2022-10-18T07:36:52;6.32;;;2.83;;
57947;SDS011;43754;56.992;24.292;2022-10-18T07:39:25;5.85;;;3.33;;
57947;SDS011;43754;56.992;24.292;2022-10-18T07:41:57;4.88;;;2.72;;
57947;SDS011;43754;56.992;24.292;2022-10-18T07:44:29;4.45;;;2.40;;
57947;SDS011;43754;56.992;24.292;2022-10-18T07:47:01;8.88;;;3.17;;
57947;SDS011;43754;56.992;24.292;2022-10-18T07:49:33;7.00;;;2.95;;
57947;SDS011;43754;56.992;24.292;2022-10-18T07:52:05;4.90;;;2.55;;
57947;SDS011;43754;56.992;24.292;2022-10-18T07:54:39;5.75;;;2.85;;
57947;SDS011;43754;56.992;24.292;2022-10-18T07:57:11;5.07;;;2.58;;
57947;SDS011;43754;56.992;24.292;2022-10-18T07:59:43;3.40;;;2.15;;
57947;SDS011;43754;56.992;24.292;2022-10-18T08:02:16;8.15;;;2.83;;
57947;SDS011;43754;56.992;24.292;2022-10-18T08:04:48;7.45;;;2.38;;
57947;SDS011;43754;56.992;24.292;2022-10-18T08:07:20;3.20;;;1.90;;
57947;SDS011;43754;56.992;24.292;2022-10-18T08:09:54;4.43;;;2.35;;
57947;SDS011;43754;56.992;24.292;2022-10-18T08:12:26;5.88;;;2.30;;
57947;SDS011;43754;56.992;24.292;2022-10-18T08:14:58;6.60;;;2.10;;
57947;SDS011;43754;56.992;24.292;2022-10-18T08:17:30;4.35;;;1.80;;
57947;SDS011;43754;56.992;24.292;2022-10-18T08:20:02;4.15;;;2.10;;
57947;SDS011;43754;56.992;24.292;2022-10-18T08:22:42;4.00;;;1.70;;
57947;SDS011;43754;56.992;24.292;2022-10-18T08:25:16;4.45;;;1.77;;
57947;SDS011;43754;56.992;24.292;2022-10-18T08:27:48;2.72;;;1.38;;
57947;SDS011;43754;56.992;24.292;2022-10-18T08:30:20;5.93;;;1.75;;
57947;SDS011;43754;56.992;24.292;2022-10-18T08:32:53;9.65;;;2.13;;
57947;SDS011;43754;56.992;24.292;2022-10-18T08:35:25;3.70;;;1.50;;
57947;SDS011;43754;56.992;24.292;2022-10-18T08:37:57;5.90;;;1.63;;
57947;SDS011;43754;56.992;24.292;2022-10-18T08:40:31;5.25;;;1.92;;
57947;SDS011;43754;56.992;24.292;2022-10-18T08:43:05;4.43;;;1.65;;
57947;SDS011;43754;56.992;24.292;2022-10-18T08:45:51;7.80;;;1.58;;
57947;SDS011;43754;56.992;24.292;2022-10-18T08:48:26;3.53;;;1.42;;
57947;SDS011;43754;56.992;24.292;2022-10-18T08:51:05;3.90;;;1.77;;
57947;SDS011;43754;56.992;24.292;2022-10-18T08:53:48;4.07;;;1.67;;
57947;SDS011;43754;56.992;24.292;2022-10-18T08:56:31;4.07;;;1.35;;
57947;SDS011;43754;56.992;24.292;2022-10-18T08:59:05;11.18;;;2.40;;
57947;SDS011;43754;56.992;24.292;2022-10-18T09:01:42;4.32;;;1.80;;
57947;SDS011;43754;56.992;24.292;2022-10-18T09:04:30;3.10;;;1.60;;
57947;SDS011;43754;56.992;24.292;2022-10-18T09:07:20;3.35;;;1.35;;
57947;SDS011;43754;56.992;24.292;2022-10-18T09:10:02;2.20;;;1.33;;
57947;SDS011;43754;56.992;24.292;2022-10-18T09:12:48;6.55;;;1.35;;
57947;SDS011;43754;56.992;24.292;2022-10-18T09:15:32;3.35;;;1.55;;
57947;SDS011;43754;56.992;24.292;2022-10-18T09:18:18;3.58;;;1.42;;
57947;SDS011;43754;56.992;24.292;2022-10-18T09:21:10;5.05;;;1.50;;
57947;SDS011;43754;56.992;24.292;2022-10-18T09:23:52;5.65;;;1.63;;
57947;SDS011;43754;56.992;24.292;2022-10-18T09:26:35;4.35;;;1.70;;
57947;SDS011;43754;56.992;24.292;2022-10-18T09:29:24;6.05;;;1.60;;
57947;SDS011;43754;56.992;24.292;2022-10-18T09:32:13;3.92;;;1.85;;
57947;SDS011;43754;56.992;24.292;2022-10-18T09:34:56;3.80;;;1.35;;
57947;SDS011;43754;56.992;24.292;2022-10-18T09:37:32;3.83;;;1.60;;
57947;SDS011;43754;56.992;24.292;2022-10-18T09:40:05;4.45;;;1.27;;
57947;SDS011;43754;56.992;24.292;2022-10-18T09:42:51;2.92;;;1.10;;
57947;SDS011;43754;56.992;24.292;2022-10-18T09:45:28;3.22;;;1.15;;
57947;SDS011;43754;56.992;24.292;2022-10-18T09:48:03;2.35;;;1.20;;
57947;SDS011;43754;56.992;24.292;2022-10-18T09:50:42;6.30;;;2.00;;
57947;SDS011;43754;56.992;24.292;2022-10-18T09:53:20;4.43;;;1.40;;
57947;SDS011;43754;56.992;24.292;2022-10-18T09:56:04;3.00;;;1.40;;
57947;SDS011;43754;56.992;24.292;2022-10-18T09:58:41;4.32;;;1.42;;
57947;SDS011;43754;56.992;24.292;2022-10-18T10:01:17;4.50;;;1.77;;
57947;SDS011;43754;56.992;24.292;2022-10-18T10:03:51;5.18;;;1.60;;
57947;SDS011;43754;56.992;24.292;2022-10-18T10:06:24;6.28;;;1.80;;
57947;SDS011;43754;56.992;24.292;2022-10-18T10:08:59;4.03;;;1.50;;
57947;SDS011;43754;56.992;24.292;2022-10-18T10:11:33;4.40;;;1.90;;
57947;SDS011;43754;56.992;24.292;2022-10-18T10:14:07;3.83;;;2.03;;
57947;SDS011;43754;56.992;24.292;2022-10-18T10:16:47;5.45;;;2.05;;
57947;SDS011;43754;56.992;24.292;2022-10-18T10:19:23;6.15;;;2.38;;
57947;SDS011;43754;56.992;24.292;2022-10-18T10:22:00;6.60;;;2.97;;
57947;SDS011;43754;56.992;24.292;2022-10-18T10:24:38;6.03;;;3.03;;
57947;SDS011;43754;56.992;24.292;2022-10-18T10:27:18;9.30;;;3.30;;
57947;SDS011;43754;56.992;24.292;2022-10-18T10:29:53;7.60;;;2.90;;
57947;SDS011;43754;56.992;24.292;2022-10-18T10:32:31;3.53;;;2.30;;
57947;SDS011;43754;56.992;24.292;2022-10-18T10:35:23;7.22;;;2.80;;
57947;SDS011;43754;56.992;24.292;2022-10-18T10:38:23;12.05;;;3.10;;
57947;SDS011;43754;56.992;24.292;2022-10-18T10:40:57;6.95;;;3.28;;
57947;SDS011;43754;56.992;24.292;2022-10-18T10:43:30;7.75;;;3.53;;
57947;SDS011;43754;56.992;24.292;2022-10-18T10:46:10;4.68;;;3.65;;
57947;SDS011;43754;56.992;24.292;2022-10-18T10:48:47;8.55;;;3.95;;
57947;SDS011;43754;56.992;24.292;2022-10-18T10:51:26;6.60;;;3.17;;
57947;SDS011;43754;56.992;24.292;2022-10-18T10:54:00;4.65;;;3.10;;
57947;SDS011;43754;56.992;24.292;2022-10-18T10:56:34;8.63;;;3.47;;
57947;SDS011;43754;56.992;24.292;2022-10-18T10:59:08;7.97;;;4.22;;
57947;SDS011;43754;56.992;24.292;2022-10-18T11:01:46;10.13;;;3.22;;
57947;SDS011;43754;56.992;24.292;2022-10-18T11:04:23;4.18;;;2.35;;
57947;SDS011;43754;56.992;24.292;2022-10-18T11:06:59;5.47;;;2.78;;
57947;SDS011;43754;56.992;24.292;2022-10-18T11:09:44;5.57;;;1.85;;
57947;SDS011;43754;56.992;24.292;2022-10-18T11:12:24;6.05;;;1.50;;
57947;SDS011;43754;56.992;24.292;2022-10-18T11:15:16;4.53;;;1.20;;
57947;SDS011;43754;56.992;24.292;2022-10-18T11:17:56;6.70;;;1.42;;
57947;SDS011;43754;56.992;24.292;2022-10-18T11:20:37;3.13;;;1.60;;
57947;SDS011;43754;56.992;24.292;2022-10-18T11:23:14;13.27;;;1.70;;
57947;SDS011;43754;56.992;24.292;2022-10-18T11:25:51;3.20;;;1.58;;
57947;SDS011;43754;56.992;24.292;2022-10-18T11:28:42;56.13;;;6.82;;
57947;SDS011;43754;56.992;24.292;2022-10-18T11:31:26;15.10;;;2.22;;
57947;SDS011;43754;56.992;24.292;2022-10-18T11:34:08;39.28;;;6.68;;
57947;SDS011;43754;56.992;24.292;2022-10-18T11:36:56;42.72;;;7.07;;
57947;SDS011;43754;56.992;24.292;2022-10-18T11:40:01;7.07;;;1.52;;
57947;SDS011;43754;56.992;24.292;2022-10-18T11:42:42;21.95;;;3.60;;
57947;SDS011;43754;56.992;24.292;2022-10-18T11:45:24;8.70;;;1.30;;
57947;SDS011;43754;56.992;24.292;2022-10-18T11:48:04;43.90;;;6.93;;
57947;SDS011;43754;56.992;24.292;2022-10-18T11:50:55;44.55;;;6.53;;
57947;SDS011;43754;56.992;24.292;2022-10-18T11:53:37;45.33;;;7.57;;
57947;SDS011;43754;56.992;24.292;2022-10-18T11:56:23;79.50;;;12.07;;
57947;SDS011;43754;56.992;24.292;2022-10-18T11:59:04;96.68;;;13.93;;
57947;SDS011;43754;56.992;24.292;2022-10-18T12:01:51;60.22;;;10.15;;
57947;SDS011;43754;56.992;24.292;2022-10-18T12:04:34;9.32;;;3.03;;
57947;SDS011;43754;56.992;24.292;2022-10-18T12:07:29;7.55;;;2.45;;
57947;SDS011;43754;56.992;24.292;2022-10-18T12:10:06;5.53;;;2.90;;
57947;SDS011;43754;56.992;24.292;2022-10-18T12:12:58;4.30;;;3.20;;
57947;SDS011;43754;56.992;24.292;2022-10-18T12:15:35;7.07;;;3.78;;
57947;SDS011;43754;56.992;24.292;2022-10-18T12:18:11;6.15;;;2.92;;
57947;SDS011;43754;56.992;24.292;2022-10-18T12:20:47;7.85;;;3.13;;
57947;SDS011;43754;56.992;24.292;2022-10-18T12:23:29;5.63;;;2.55;;
57947;SDS011;43754;56.992;24.292;2022-10-18T12:26:09;4.72;;;2.40;;
57947;SDS011;43754;56.992;24.292;2022-10-18T12:28:45;5.53;;;3.10;;
57947;SDS011;43754;56.992;24.292;2022-10-18T12:31:23;4.70;;;3.13;;
57947;SDS011;43754;56.992;24.292;2022-10-18T12:33:59;4.00;;;3.60;;
57947;SDS011;43754;56.992;24.292;2022-10-18T12:39:35;4.68;;;3.42;;
57947;SDS011;43754;56.992;24.292;2022-10-18T12:42:23;6.20;;;3.50;;
57947;SDS011;43754;56.992;24.292;2022-10-18T12:45:01;5.07;;;3.10;;
57947;SDS011;43754;56.992;24.292;2022-10-18T12:47:35;4.25;;;2.60;;
57947;SDS011;43754;56.992;24.292;2022-10-18T12:50:23;3.03;;;1.70;;
57947;SDS011;43754;56.992;24.292;2022-10-18T12:53:01;2.53;;;1.30;;
57947;SDS011;43754;56.992;24.292;2022-10-18T12:55:43;1.75;;;0.82;;
57947;SDS011;43754;56.992;24.292;2022-10-18T12:58:24;2.75;;;0.90;;
57947;SDS011;43754;56.992;24.292;2022-10-18T13:01:00;2.38;;;1.00;;
57947;SDS011;43754;56.992;24.292;2022-10-18T13:06:25;3.30;;;0.85;;
57947;SDS011;43754;56.992;24.292;2022-10-18T13:09:35;1.63;;;1.05;;
57947;SDS011;43754;56.992;24.292;2022-10-18T13:15:22;2.13;;;1.27;;
57947;SDS011;43754;56.992;24.292;2022-10-18T13:18:09;2.03;;;1.10;;
57947;SDS011;43754;56.992;24.292;2022-10-18T13:20:55;3.80;;;1.38;;
57947;SDS011;43754;56.992;24.292;2022-10-18T13:23:41;2.17;;;0.93;;
57947;SDS011;43754;56.992;24.292;2022-10-18T13:26:34;2.92;;;0.80;;
57947;SDS011;43754;56.992;24.292;2022-10-18T13:29:20;3.67;;;0.95;;
57947;SDS011;43754;56.992;24.292;2022-10-18T13:32:03;2.17;;;0.70;;
57947;SDS011;43754;56.992;24.292;2022-10-18T13:34:53;4.20;;;0.88;;
57947;SDS011;43754;56.992;24.292;2022-10-18T13:37:25;4.60;;;1.45;;
57947;SDS011;43754;56.992;24.292;2022-10-18T13:40:20;8.57;;;1.23;;
57947;SDS011;43754;56.992;24.292;2022-10-18T13:42:55;2.42;;;0.80;;
57947;SDS011;43754;56.992;24.292;2022-10-18T13:45:43;2.10;;;0.90;;
57947;SDS011;43754;56.992;24.292;2022-10-18T13:48:46;2.28;;;0.80;;
57947;SDS011;43754;56.992;24.292;2022-10-18T13:54:24;4.05;;;1.00;;
57947;SDS011;43754;56.992;24.292;2022-10-18T13:57:37;4.25;;;1.02;;
57947;SDS011;43754;56.992;24.292;2022-10-18T14:00:26;11.90;;;1.60;;
57947;SDS011;43754;56.992;24.292;2022-10-18T14:03:14;5.35;;;1.67;;
57947;SDS011;43754;56.992;24.292;2022-10-18T14:06:21;3.10;;;1.08;;
57947;SDS011;43754;56.992;24.292;2022-10-18T14:08:56;5.15;;;1.00;;
57947;SDS011;43754;56.992;24.292;2022-10-18T14:11:50;4.22;;;0.80;;
57947;SDS011;43754;56.992;24.292;2022-10-18T14:14:27;3.50;;;1.60;;
57947;SDS011;43754;56.992;24.292;2022-10-18T14:19:49;3.70;;;0.88;;
57947;SDS011;43754;56.992;24.292;2022-10-18T14:22:27;4.78;;;1.48;;
57947;SDS011;43754;56.992;24.292;2022-10-18T14:25:17;3.80;;;1.70;;
57947;SDS011;43754;56.992;24.292;2022-10-18T14:28:01;7.88;;;1.77;;
57947;SDS011;43754;56.992;24.292;2022-10-18T14:30:34;3.10;;;0.85;;
57947;SDS011;43754;56.992;24.292;2022-10-18T14:33:21;4.70;;;1.20;;
57947;SDS011;43754;56.992;24.292;2022-10-18T14:35:59;2.13;;;1.00;;
57947;SDS011;43754;56.992;24.292;2022-10-18T14:38:35;4.20;;;1.15;;
57947;SDS011;43754;56.992;24.292;2022-10-18T14:41:15;2.13;;;0.82;;
57947;SDS011;43754;56.992;24.292;2022-10-18T14:43:48;2.35;;;0.82;;
57947;SDS011;43754;56.992;24.292;2022-10-18T14:46:21;6.50;;;1.33;;
57947;SDS011;43754;56.992;24.292;2022-10-18T14:49:03;5.65;;;1.27;;
57947;SDS011;43754;56.992;24.292;2022-10-18T14:51:35;3.38;;;1.00;;
57947;SDS011;43754;56.992;24.292;2022-10-18T14:54:12;6.20;;;1.70;;
57947;SDS011;43754;56.992;24.292;2022-10-18T14:56:46;3.38;;;1.20;;
57947;SDS011;43754;56.992;24.292;2022-10-18T14:59:19;3.47;;;1.13;;
57947;SDS011;43754;56.992;24.292;2022-10-18T15:01:55;5.32;;;1.98;;
57947;SDS011;43754;56.992;24.292;2022-10-18T15:04:29;4.10;;;2.97;;
57947;SDS011;43754;56.992;24.292;2022-10-18T15:07:05;9.68;;;4.68;;
57947;SDS011;43754;56.992;24.292;2022-10-18T15:09:45;6.47;;;5.55;;
57947;SDS011;43754;56.992;24.292;2022-10-18T15:12:17;8.93;;;5.55;;
57947;SDS011;43754;56.992;24.292;2022-10-18T15:14:50;11.15;;;6.57;;
57947;SDS011;43754;56.992;24.292;2022-10-18T15:17:24;7.30;;;6.55;;
57947;SDS011;43754;56.992;24.292;2022-10-18T15:19:58;7.53;;;6.57;;
57947;SDS011;43754;56.992;24.292;2022-10-18T15:22:36;6.88;;;5.38;;
57947;SDS011;43754;56.992;24.292;2022-10-18T15:25:14;7.72;;;5.15;;
57947;SDS011;43754;56.992;24.292;2022-10-18T15:27:48;7.22;;;4.20;;
57947;SDS011;43754;56.992;24.292;2022-10-18T15:30:22;5.10;;;3.60;;
57947;SDS011;43754;56.992;24.292;2022-10-18T15:32:58;5.38;;;3.92;;
57947;SDS011;43754;56.992;24.292;2022-10-18T15:35:32;9.93;;;4.25;;
57947;SDS011;43754;56.992;24.292;2022-10-18T15:38:12;4.50;;;3.25;;
57947;SDS011;43754;56.992;24.292;2022-10-18T15:40:46;9.90;;;8.77;;
57947;SDS011;43754;56.992;24.292;2022-10-18T15:43:34;10.77;;;8.48;;
57947;SDS011;43754;56.992;24.292;2022-10-18T15:46:24;4.40;;;3.88;;